This is the latest recevied weather packets stored in our database for station/object KD8UTJ. If no packets are shown the sender has not sent any weather packets the latest 1 day(s).
| Time | Temp. | Humidity | Pressure | Rain* | Wind** | Luminosity | Snow |
|---|---|---|---|---|---|---|---|
| 1778072866 | 25° C | 82% | 1019.2 hPa | 0 mm | - | 244 W/m² | - |
| 1778072563 | 25° C | 82% | 1018.9 hPa | 0 mm | - | 205 W/m² | - |
| 1778072261 | 25° C | 82% | 1019.1 hPa | 0 mm | - | 225 W/m² | - |
| 1778071657 | 25° C | 83% | 1019 hPa | 0 mm | - | 232 W/m² | - |
| 1778071354 | 25° C | 83% | 1018.9 hPa | 0 mm | - | 211 W/m² | - |
| 1778070750 | 25° C | 83% | 1018.9 hPa | 0 mm | - | 233 W/m² | - |
| 1778070144 | 25° C | 83% | 1019.2 hPa | 0 mm | - | 187 W/m² | - |
| 1778069842 | 25° C | 85% | 1019.1 hPa | 0 mm | - | 214 W/m² | - |
| 1778069236 | 23.89° C | 90% | 1019 hPa | 0 mm | - | 171 W/m² | - |
| 1778067724 | 22.22° C | 93% | 1018.7 hPa | 0 mm | - | 75 W/m² | - |
| 1778066815 | 21.67° C | 94% | 1018.7 hPa | 0 mm | - | 46 W/m² | - |
| 1778065303 | 21.11° C | 93% | 1018.7 hPa | 0 mm | - | 20 W/m² | - |
| 1778064999 | 21.11° C | 93% | 1018.6 hPa | 0 mm | - | 14 W/m² | - |
| 1778064696 | 21.11° C | 93% | 1018.4 hPa | 0 mm | - | 10 W/m² | - |
| 1778063789 | 21.11° C | 93% | 1018.2 hPa | 0 mm | - | 2 W/m² | - |
| 1778063184 | 21.11° C | 92% | 1018.2 hPa | 0 mm | - | 0 W/m² | - |
| 1778062881 | 21.11° C | 92% | 1018.3 hPa | 0 mm | - | 0 W/m² | - |
| 1778062577 | 21.67° C | 92% | 1018.1 hPa | 0 mm | - | 0 W/m² | - |
| 1778062274 | 21.67° C | 92% | 1017.9 hPa | 0 mm | - | 0 W/m² | - |
| 1778061973 | 21.67° C | 92% | 1018 hPa | 0 mm | - | 0 W/m² | - |
| 1778061670 | 22.22° C | 92% | 1017.8 hPa | 0 mm | - | 0 W/m² | - |
| 1778061369 | 22.22° C | 92% | 1017.6 hPa | 0 mm | - | 0 W/m² | - |
| 1778060763 | 22.22° C | 92% | 1018 hPa | 0 mm | - | 0 W/m² | - |
| 1778059250 | 22.22° C | 91% | 1017.8 hPa | 0 mm | - | 0 W/m² | - |
| 1778058343 | 22.22° C | 90% | 1017.5 hPa | 0 mm | - | 0 W/m² | - |
* Rain latest hour (hover to see other rain measurements)
** Current wind speed in m/s (hover to see current wind gust speed)